Time;durP1;ratioP1;P1;durP2;ratioP2;P2;SDS_P1;SDS_P2;PMS_P1;PMS_P2;Temp;Humidity;BMP_temperature;BMP_pressure;BME280_temperature;BME280_humidity;BME280_pressure;Samples;Min_cycle;Max_cycle;Signal;HPM_P1;HPM_P2
2022/09/11 00:00:42;;;;;;;15.50;9.98;;;16.90;99.90;;;;;;5052315;28;20215;-67
2022/09/11 00:03:08;;;;;;;11.48;6.88;;;17.00;99.90;;;;;;5043910;28;20207;-67
2022/09/11 00:05:42;;;;;;;12.68;7.30;;;16.90;99.90;;;;;;5050363;28;20568;-68
2022/09/11 00:08:09;;;;;;;12.85;7.20;;;16.90;99.90;;;;;;5050945;28;20176;-67
2022/09/11 00:10:37;;;;;;;9.77;6.53;;;16.90;99.90;;;;;;5034151;28;20211;-67
2022/09/11 00:13:03;;;;;;;11.10;6.63;;;17.00;99.90;;;;;;5049659;28;20285;-66
2022/09/11 00:15:29;;;;;;;11.23;6.75;;;16.90;99.90;;;;;;5050361;28;20208;-68
2022/09/11 00:17:55;;;;;;;9.15;6.53;;;16.90;99.90;;;;;;5051573;28;20257;-67
2022/09/11 00:20:21;;;;;;;9.32;6.35;;;16.80;99.90;;;;;;5054241;28;20204;-67
2022/09/11 00:22:47;;;;;;;10.32;6.07;;;16.80;99.90;;;;;;5070305;28;20211;-68
2022/09/11 00:25:13;;;;;;;7.75;5.32;;;16.80;99.90;;;;;;5049788;28;20247;-67
2022/09/11 00:27:39;;;;;;;7.30;5.93;;;16.90;99.90;;;;;;5049087;28;20208;-67
2022/09/11 00:30:04;;;;;;;7.20;5.43;;;16.80;99.90;;;;;;5045707;28;20207;-66
2022/09/11 00:32:32;;;;;;;8.48;5.47;;;16.80;99.90;;;;;;5045978;28;20188;-67
2022/09/11 00:34:57;;;;;;;12.98;5.45;;;16.80;99.90;;;;;;5051140;28;20212;-68
2022/09/11 00:37:23;;;;;;;12.13;7.10;;;16.80;99.90;;;;;;5025843;28;20204;-67
2022/09/11 00:39:49;;;;;;;9.75;5.72;;;16.90;99.90;;;;;;5051647;28;20210;-68
2022/09/11 00:42:14;;;;;;;8.18;5.20;;;16.90;99.90;;;;;;5048098;28;20227;-66
2022/09/11 00:44:40;;;;;;;6.30;4.80;;;16.80;99.90;;;;;;5044860;28;20198;-68
2022/09/11 00:47:08;;;;;;;8.18;5.70;;;16.80;99.90;;;;;;5044655;28;20645;-68
2022/09/11 00:49:47;;;;;;;9.18;5.70;;;16.70;99.90;;;;;;5027410;28;20215;-67
2022/09/11 00:52:33;;;;;;;10.23;5.10;;;16.60;99.90;;;;;;5038854;28;20295;-67
2022/09/11 00:55:07;;;;;;;10.13;5.63;;;16.70;99.90;;;;;;5042735;28;20277;-67
2022/09/11 00:57:39;;;;;;;9.35;4.57;;;16.70;99.90;;;;;;5047479;28;20199;-66
2022/09/11 01:00:07;;;;;;;6.80;4.90;;;16.70;99.90;;;;;;5047793;28;20236;-68
2022/09/11 01:02:35;;;;;;;6.70;4.97;;;16.70;99.90;;;;;;5043434;28;20745;-68
2022/09/11 01:05:02;;;;;;;6.85;4.60;;;16.70;99.90;;;;;;5047993;28;20195;-67
2022/09/11 01:07:29;;;;;;;6.25;4.60;;;16.70;99.90;;;;;;5050252;28;20201;-67
2022/09/11 01:09:55;;;;;;;5.97;4.53;;;16.70;99.90;;;;;;5046178;28;20204;-68
2022/09/11 01:12:53;;;;;;;5.15;4.65;;;16.70;99.90;;;;;;5042858;28;20572;-67
2022/09/11 01:15:58;;;;;;;5.95;4.78;;;16.70;99.90;;;;;;5029486;28;20219;-67
2022/09/11 01:18:33;;;;;;;7.78;4.97;;;16.70;99.90;;;;;;5040346;28;20200;-69
2022/09/11 01:21:13;;;;;;;6.57;4.93;;;16.80;99.90;;;;;;5049468;28;20234;-69
2022/09/11 01:23:46;;;;;;;5.93;4.75;;;16.90;99.90;;;;;;5046319;28;20172;-66
2022/09/11 01:26:54;;;;;;;7.32;4.90;;;16.70;99.90;;;;;;5047733;28;20231;-67
2022/09/11 01:29:24;;;;;;;6.57;5.07;;;16.60;99.90;;;;;;5036329;28;20219;-67
2022/09/11 01:31:55;;;;;;;7.60;5.18;;;16.60;99.90;;;;;;5032625;28;20270;-67
2022/09/11 01:34:28;;;;;;;8.45;5.53;;;16.50;99.90;;;;;;5049636;28;20207;-67
2022/09/11 01:37:02;;;;;;;8.05;5.50;;;16.50;99.90;;;;;;5043693;28;20310;-67
2022/09/11 01:39:33;;;;;;;7.28;4.95;;;16.40;99.90;;;;;;5046109;28;20225;-69
2022/09/11 01:42:06;;;;;;;8.85;5.13;;;16.50;99.90;;;;;;5046109;28;20298;-68
2022/09/11 01:44:45;;;;;;;6.55;5.40;;;16.40;99.90;;;;;;5043115;28;20192;-67
2022/09/11 01:47:11;;;;;;;5.78;4.75;;;16.30;99.90;;;;;;5043035;28;20549;-67
2022/09/11 01:49:54;;;;;;;5.43;4.90;;;16.30;99.90;;;;;;5047618;28;20210;-67
2022/09/11 01:52:26;;;;;;;8.40;4.55;;;16.30;99.90;;;;;;5050333;28;20211;-67
2022/09/11 01:55:01;;;;;;;6.20;5.18;;;16.30;99.90;;;;;;5047411;28;20239;-67
2022/09/11 01:57:38;;;;;;;8.48;5.40;;;16.30;99.90;;;;;;5050535;28;20202;-68
2022/09/11 02:00:08;;;;;;;7.65;4.63;;;16.30;99.90;;;;;;5046587;28;20208;-67
2022/09/11 02:02:38;;;;;;;5.28;4.78;;;16.20;99.90;;;;;;5042614;28;20592;-67
2022/09/11 02:05:09;;;;;;;7.32;4.20;;;16.20;99.90;;;;;;5044668;28;20621;-67
2022/09/11 02:07:41;;;;;;;11.25;4.47;;;16.10;99.90;;;;;;5048803;28;20287;-67
2022/09/11 02:10:10;;;;;;;8.63;4.15;;;16.20;99.90;;;;;;5035444;28;20211;-69
2022/09/11 02:12:42;;;;;;;6.60;4.65;;;16.10;99.90;;;;;;5047041;28;20234;-67
2022/09/11 02:15:10;;;;;;;5.10;4.25;;;16.10;99.90;;;;;;5048201;28;20261;-68
2022/09/11 02:17:58;;;;;;;7.50;4.30;;;16.10;99.90;;;;;;5050130;28;20278;-68
2022/09/11 02:20:24;;;;;;;5.00;4.20;;;16.00;99.90;;;;;;5043385;28;20194;-68
2022/09/11 02:22:51;;;;;;;5.05;4.15;;;16.00;99.90;;;;;;5052517;28;20236;-67
2022/09/11 02:25:17;;;;;;;7.32;4.57;;;16.00;99.90;;;;;;5042700;28;20218;-68
2022/09/11 02:27:42;;;;;;;6.75;3.95;;;16.00;99.90;;;;;;5036178;28;20692;-67
2022/09/11 02:30:09;;;;;;;6.18;4.50;;;15.90;99.90;;;;;;5035469;28;20203;-67
2022/09/11 02:32:37;;;;;;;4.97;4.47;;;16.00;99.90;;;;;;5035950;28;20187;-68
2022/09/11 02:35:03;;;;;;;5.15;4.60;;;16.00;99.90;;;;;;5053168;28;20223;-68
2022/09/11 02:37:44;;;;;;;5.60;4.13;;;16.00;99.90;;;;;;5035823;28;20210;-68
2022/09/11 02:40:38;;;;;;;4.97;4.25;;;16.00;99.90;;;;;;5052113;28;20223;-67
2022/09/11 02:43:22;;;;;;;6.63;4.63;;;15.90;99.90;;;;;;5051292;28;20204;-68
2022/09/11 02:46:06;;;;;;;5.13;4.38;;;15.90;99.90;;;;;;5050331;28;20697;-68
2022/09/11 02:48:37;;;;;;;4.78;4.22;;;15.90;99.90;;;;;;5053386;28;20290;-66
2022/09/11 02:51:48;;;;;;;7.68;4.35;;;15.80;99.90;;;;;;5053144;28;20693;-67
2022/09/11 02:54:31;;;;;;;9.10;4.72;;;15.80;99.90;;;;;;5013170;28;20716;-68
2022/09/11 02:57:27;;;;;;;7.07;5.15;;;15.80;99.90;;;;;;5050439;28;20234;-69
2022/09/11 02:59:59;;;;;;;6.13;4.80;;;15.80;99.90;;;;;;5051866;28;20693;-68
2022/09/11 03:02:27;;;;;;;8.02;4.63;;;15.70;99.90;;;;;;5033474;28;20186;-67
2022/09/11 03:04:53;;;;;;;7.75;5.22;;;15.80;99.90;;;;;;5052994;28;20294;-67
2022/09/11 03:07:18;;;;;;;6.88;4.40;;;15.80;99.90;;;;;;5053484;28;20299;-67
2022/09/11 03:09:44;;;;;;;6.22;4.68;;;15.70;99.90;;;;;;5035039;28;20231;-69
2022/09/11 03:12:10;;;;;;;6.75;4.50;;;15.80;99.90;;;;;;5048042;28;20208;-67
2022/09/11 03:14:37;;;;;;;6.85;4.70;;;15.80;99.90;;;;;;5051737;28;20199;-67
2022/09/11 03:17:03;;;;;;;7.03;5.43;;;15.80;99.90;;;;;;5053599;28;20286;-68
2022/09/11 03:19:29;;;;;;;7.63;5.03;;;15.80;99.90;;;;;;5052776;28;20310;-67
2022/09/11 03:21:55;;;;;;;8.80;6.07;;;15.80;99.90;;;;;;5053024;28;20696;-68
2022/09/11 03:24:20;;;;;;;9.93;5.80;;;15.70;99.90;;;;;;5051688;28;20203;-68
2022/09/11 03:26:46;;;;;;;6.85;5.43;;;15.80;99.90;;;;;;5049154;28;20184;-68
2022/09/11 03:29:11;;;;;;;11.25;7.07;;;15.80;99.90;;;;;;5035004;28;21777;-67
2022/09/11 03:31:37;;;;;;;8.32;6.82;;;15.80;99.90;;;;;;5050927;28;20619;-68
2022/09/11 03:34:02;;;;;;;10.35;8.32;;;15.80;99.90;;;;;;5041295;28;20216;-68
2022/09/11 03:36:28;;;;;;;11.40;8.25;;;15.70;99.90;;;;;;5052371;28;20211;-68
2022/09/11 03:38:54;;;;;;;9.68;7.60;;;15.60;99.90;;;;;;5052328;28;20299;-68
2022/09/11 03:41:20;;;;;;;10.27;8.18;;;15.70;99.90;;;;;;5051133;28;20172;-68
2022/09/11 03:43:45;;;;;;;10.52;8.52;;;15.70;99.90;;;;;;5048492;28;20207;-68
2022/09/11 03:46:11;;;;;;;12.88;8.93;;;15.70;99.90;;;;;;5052209;28;20218;-68
2022/09/11 03:48:37;;;;;;;11.43;8.23;;;15.70;99.90;;;;;;5052424;28;20199;-67
2022/09/11 03:51:04;;;;;;;11.50;10.30;;;15.70;99.90;;;;;;5051355;28;20562;-67
2022/09/11 03:53:31;;;;;;;13.55;9.77;;;15.70;99.90;;;;;;5052197;28;20697;-68
2022/09/11 03:55:59;;;;;;;12.50;9.90;;;15.60;99.90;;;;;;5051801;28;20744;-67
2022/09/11 03:58:25;;;;;;;12.23;9.95;;;15.50;99.90;;;;;;5050793;28;20291;-67
2022/09/11 04:00:50;;;;;;;13.43;10.07;;;15.40;99.90;;;;;;5052068;28;20211;-67
2022/09/11 04:03:16;;;;;;;12.52;10.38;;;15.40;99.90;;;;;;5052112;28;20206;-68
2022/09/11 04:05:43;;;;;;;11.40;9.20;;;15.40;99.90;;;;;;5052040;28;20196;-69
2022/09/11 04:08:12;;;;;;;12.23;9.23;;;15.40;99.90;;;;;;5041703;28;20232;-67
2022/09/11 04:10:38;;;;;;;11.63;9.05;;;15.40;99.90;;;;;;5031348;28;20226;-67
2022/09/11 04:13:04;;;;;;;13.70;9.60;;;15.40;99.90;;;;;;5049066;28;20218;-67
2022/09/11 04:15:31;;;;;;;12.98;9.20;;;15.40;99.90;;;;;;5050283;28;20216;-68
2022/09/11 04:17:57;;;;;;;12.60;9.68;;;15.40;99.90;;;;;;5053946;28;20200;-68
2022/09/11 04:20:23;;;;;;;12.77;9.88;;;15.50;99.90;;;;;;5052806;28;20626;-69
2022/09/11 04:22:49;;;;;;;15.68;10.63;;;15.40;99.90;;;;;;5052461;28;20871;-67
2022/09/11 04:25:14;;;;;;;18.70;10.23;;;15.40;99.90;;;;;;5049247;28;20262;-67
2022/09/11 04:27:40;;;;;;;17.80;11.48;;;15.40;99.90;;;;;;5046811;28;20222;-68
2022/09/11 04:30:06;;;;;;;16.05;11.07;;;15.40;99.90;;;;;;5048912;28;20709;-66
2022/09/11 04:32:33;;;;;;;17.67;10.90;;;15.40;99.90;;;;;;5046908;28;20184;-67
2022/09/11 04:37:34;;;;;;;17.48;11.38;;;15.50;99.90;;;;;;5067835;28;20222;-72
2022/09/11 04:39:59;;;;;;;18.35;11.77;;;15.50;99.90;;;;;;5053063;28;20207;-71
2022/09/11 04:42:25;;;;;;;19.38;12.77;;;15.50;99.90;;;;;;5069787;28;20214;-71
2022/09/11 04:44:51;;;;;;;18.63;11.80;;;15.50;99.90;;;;;;5071529;28;20218;-70
2022/09/11 04:47:17;;;;;;;21.00;12.27;;;15.50;99.90;;;;;;5034571;28;20188;-73
2022/09/11 04:49:45;;;;;;;21.88;13.27;;;15.60;99.90;;;;;;5044060;28;20207;-71
2022/09/11 04:52:11;;;;;;;24.00;13.00;;;15.60;99.90;;;;;;5042985;28;20630;-71
2022/09/11 04:54:37;;;;;;;20.17;13.20;;;15.60;99.90;;;;;;5050401;28;20207;-71
2022/09/11 04:57:03;;;;;;;18.98;13.10;;;15.70;99.90;;;;;;5047588;28;20268;-71
2022/09/11 04:59:29;;;;;;;21.60;13.02;;;15.70;99.90;;;;;;5030005;28;20650;-71
2022/09/11 05:01:54;;;;;;;18.90;12.63;;;15.80;99.90;;;;;;5046790;28;20214;-71
2022/09/11 05:04:20;;;;;;;19.08;12.32;;;15.90;99.90;;;;;;5048236;28;20207;-72
2022/09/11 05:06:49;;;;;;;20.17;13.30;;;15.90;99.90;;;;;;5046380;28;20211;-73
2022/09/11 05:09:16;;;;;;;20.05;12.93;;;15.90;99.90;;;;;;5043393;28;20218;-70
2022/09/11 05:11:42;;;;;;;19.23;11.90;;;16.00;99.90;;;;;;5033137;28;20180;-71
2022/09/11 05:14:07;;;;;;;21.70;13.32;;;16.10;99.90;;;;;;5046062;28;20187;-72
2022/09/11 05:16:34;;;;;;;20.65;12.38;;;16.10;99.90;;;;;;5025586;28;20210;-72
2022/09/11 05:19:02;;;;;;;22.67;12.70;;;16.00;99.90;;;;;;5032074;28;20294;-71
2022/09/11 05:21:28;;;;;;;20.48;13.73;;;16.10;99.90;;;;;;5047516;28;20200;-72
2022/09/11 05:23:56;;;;;;;21.88;14.57;;;16.10;99.90;;;;;;5041663;28;20242;-71
2022/09/11 05:26:25;;;;;;;24.63;14.77;;;16.10;99.90;;;;;;5044033;28;20665;-72
2022/09/11 05:28:54;;;;;;;25.67;14.50;;;16.10;99.90;;;;;;5040333;28;20207;-70
2022/09/11 05:31:20;;;;;;;21.23;13.77;;;16.10;99.90;;;;;;5044209;28;20210;-72
2022/09/11 05:33:46;;;;;;;20.52;13.75;;;16.30;99.90;;;;;;5030414;28;20263;-72
2022/09/11 05:36:13;;;;;;;22.85;14.60;;;16.40;99.90;;;;;;5045073;28;20250;-72
2022/09/11 05:38:39;;;;;;;24.13;15.00;;;16.40;99.90;;;;;;5047674;28;20175;-70
2022/09/11 05:41:07;;;;;;;24.65;14.80;;;16.40;99.90;;;;;;5031994;28;20666;-72
2022/09/11 05:43:33;;;;;;;27.15;15.57;;;16.40;99.90;;;;;;5025548;28;20211;-70
2022/09/11 05:45:59;;;;;;;23.83;16.58;;;16.30;99.90;;;;;;5048826;28;20292;-72
2022/09/11 05:48:29;;;;;;;25.77;16.15;;;16.30;99.90;;;;;;5048948;28;20211;-71
2022/09/11 05:51:00;;;;;;;27.13;15.95;;;16.30;99.90;;;;;;5022517;28;20200;-71
2022/09/11 05:53:28;;;;;;;26.48;15.80;;;16.20;99.90;;;;;;5046585;28;20184;-72
2022/09/11 05:55:54;;;;;;;28.75;16.60;;;16.10;99.90;;;;;;5047379;28;20296;-70
2022/09/11 05:58:20;;;;;;;34.45;17.77;;;16.10;99.90;;;;;;5056015;28;20294;-72
2022/09/11 06:00:46;;;;;;;29.55;16.88;;;16.10;99.90;;;;;;5032575;28;20579;-71
2022/09/11 06:03:13;;;;;;;33.53;18.90;;;16.10;99.90;;;;;;5047640;28;20207;-71
2022/09/11 06:05:39;;;;;;;31.17;18.95;;;16.00;99.90;;;;;;5027521;28;20222;-71
2022/09/11 06:08:09;;;;;;;28.63;18.52;;;16.10;99.90;;;;;;5027721;28;20188;-73
2022/09/11 06:10:35;;;;;;;31.40;18.52;;;16.10;99.90;;;;;;5027608;28;20693;-72
2022/09/11 06:13:01;;;;;;;31.30;18.90;;;16.10;99.90;;;;;;5047168;28;20721;-71
2022/09/11 06:15:27;;;;;;;28.73;17.58;;;16.10;99.90;;;;;;5032303;28;20207;-74
2022/09/11 06:17:53;;;;;;;27.63;17.45;;;16.20;99.90;;;;;;5039261;28;20212;-72
2022/09/11 06:20:18;;;;;;;30.42;18.15;;;16.20;99.90;;;;;;5048420;28;20572;-69
2022/09/11 06:22:44;;;;;;;31.45;19.10;;;16.30;99.90;;;;;;5030669;28;20674;-71
2022/09/11 06:25:10;;;;;;;29.13;18.27;;;16.50;99.90;;;;;;5042155;28;20583;-71
2022/09/11 06:27:35;;;;;;;26.45;17.67;;;16.60;99.90;;;;;;5032073;28;20878;-72
2022/09/11 06:30:01;;;;;;;25.52;17.35;;;16.70;99.90;;;;;;5045356;28;20212;-70
2022/09/11 06:32:26;;;;;;;27.42;16.25;;;16.80;99.90;;;;;;5032434;28;20267;-71
2022/09/11 06:34:53;;;;;;;25.02;15.80;;;16.90;99.90;;;;;;5038678;28;20675;-74
2022/09/11 06:37:19;;;;;;;22.60;15.98;;;17.00;99.90;;;;;;5049933;28;20217;-71
2022/09/11 06:39:44;;;;;;;24.67;16.00;;;17.00;99.90;;;;;;5044586;28;20211;-70
2022/09/11 06:42:10;;;;;;;23.67;15.25;;;17.00;99.90;;;;;;5043957;28;20208;-72
2022/09/11 06:44:35;;;;;;;26.58;16.35;;;17.10;99.90;;;;;;5027765;28;20180;-72
2022/09/11 06:47:01;;;;;;;26.42;16.25;;;17.00;99.90;;;;;;5030404;28;20227;-73
2022/09/11 06:49:26;;;;;;;25.73;15.88;;;16.90;99.90;;;;;;5025951;28;20203;-71
2022/09/11 06:51:53;;;;;;;25.38;14.80;;;16.80;99.90;;;;;;5042179;28;20208;-77
2022/09/11 06:54:19;;;;;;;24.45;15.45;;;16.80;99.90;;;;;;5048178;28;20196;-72
2022/09/11 06:56:44;;;;;;;22.50;15.10;;;16.80;99.90;;;;;;5044494;28;20756;-71
2022/09/11 06:59:10;;;;;;;19.02;14.27;;;16.80;99.90;;;;;;5031322;28;20181;-70
2022/09/11 07:01:36;;;;;;;20.35;14.63;;;16.80;99.90;;;;;;5045256;28;20303;-74
2022/09/11 07:04:02;;;;;;;21.80;14.80;;;16.90;99.90;;;;;;5046050;28;20220;-71
2022/09/11 07:06:29;;;;;;;21.67;14.60;;;17.00;99.90;;;;;;5032062;28;20230;-70
2022/09/11 07:09:02;;;;;;;22.20;14.38;;;17.00;99.90;;;;;;5023635;28;20211;-72
2022/09/11 07:11:31;;;;;;;19.33;13.88;;;17.00;99.90;;;;;;5035854;28;20164;-71
2022/09/11 07:13:57;;;;;;;23.38;14.88;;;17.10;99.90;;;;;;5047484;28;20210;-71
2022/09/11 07:16:24;;;;;;;21.00;14.23;;;17.10;99.90;;;;;;5050307;28;20665;-70
2022/09/11 07:18:50;;;;;;;23.15;14.52;;;17.20;99.90;;;;;;5046233;28;20210;-71
2022/09/11 07:21:22;;;;;;;18.35;12.57;;;17.30;99.90;;;;;;5049731;28;20196;-73
2022/09/11 07:23:50;;;;;;;19.33;12.30;;;17.30;99.90;;;;;;5045831;28;20255;-71
2022/09/11 07:26:17;;;;;;;17.88;11.70;;;17.30;99.90;;;;;;5045849;28;20219;-71
2022/09/11 07:28:42;;;;;;;18.02;13.00;;;17.40;99.90;;;;;;5051324;28;20294;-72
2022/09/11 07:31:16;;;;;;;18.55;13.52;;;17.40;99.90;;;;;;5033513;28;20295;-75
2022/09/11 07:33:47;;;;;;;19.15;12.35;;;17.40;99.90;;;;;;5044539;28;20250;-71
2022/09/11 07:36:15;;;;;;;16.35;12.65;;;17.50;99.90;;;;;;5050887;28;20231;-71
2022/09/11 07:38:42;;;;;;;16.00;11.52;;;17.60;99.90;;;;;;5046415;28;20176;-71
2022/09/11 07:41:09;;;;;;;18.10;12.13;;;17.70;99.90;;;;;;5045963;28;20259;-71
2022/09/11 07:43:35;;;;;;;16.25;12.07;;;17.90;99.90;;;;;;5034735;28;20252;-71
2022/09/11 07:46:02;;;;;;;13.82;11.00;;;18.30;99.90;;;;;;5031761;28;20226;-71
2022/09/11 07:48:28;;;;;;;16.55;11.88;;;18.80;99.90;;;;;;5048209;28;20681;-72
2022/09/11 07:51:02;;;;;;;16.23;11.30;;;19.30;99.90;;;;;;5042154;28;20236;-71
2022/09/11 07:53:33;;;;;;;16.60;10.95;;;19.80;99.90;;;;;;5030330;28;20203;-72
2022/09/11 07:56:02;;;;;;;13.38;10.50;;;20.40;99.90;;;;;;5049165;28;20219;-71
2022/09/11 07:58:32;;;;;;;17.23;11.57;;;20.70;99.90;;;;;;5033808;28;20213;-71
2022/09/11 08:00:58;;;;;;;12.60;10.35;;;20.90;99.90;;;;;;5041466;28;20251;-71
2022/09/11 08:03:24;;;;;;;15.57;10.75;;;21.00;99.90;;;;;;5049543;28;20728;-71
2022/09/11 08:05:49;;;;;;;18.60;11.52;;;21.10;99.90;;;;;;5045162;28;20270;-71
2022/09/11 08:08:15;;;;;;;17.20;12.35;;;21.60;99.90;;;;;;5045248;28;20187;-74
2022/09/11 08:10:40;;;;;;;16.15;11.18;;;21.30;99.90;;;;;;5048039;28;20191;-70
2022/09/11 08:13:06;;;;;;;16.92;11.05;;;20.90;99.90;;;;;;5048744;28;20203;-72
2022/09/11 08:15:31;;;;;;;14.85;11.05;;;20.80;99.90;;;;;;5044812;28;20222;-72
2022/09/11 08:17:57;;;;;;;15.98;11.20;;;20.60;99.90;;;;;;5041300;28;20208;-72
2022/09/11 08:20:22;;;;;;;17.58;11.70;;;20.40;99.90;;;;;;5049657;28;20182;-72
2022/09/11 08:22:48;;;;;;;19.05;11.57;;;20.20;99.90;;;;;;5045854;28;20200;-72
2022/09/11 08:25:14;;;;;;;16.20;11.20;;;20.20;99.90;;;;;;5033575;28;20199;-71
2022/09/11 08:27:39;;;;;;;16.70;11.15;;;20.40;99.90;;;;;;5047040;28;20938;-69
2022/09/11 08:30:05;;;;;;;13.40;10.10;;;21.10;99.90;;;;;;5045378;28;20291;-72
2022/09/11 08:32:31;;;;;;;18.05;11.57;;;21.80;99.90;;;;;;5045971;28;20176;-71
2022/09/11 08:34:57;;;;;;;15.20;10.43;;;21.90;99.90;;;;;;5031198;28;20172;-71
2022/09/11 08:37:23;;;;;;;14.23;10.18;;;22.00;99.90;;;;;;5049583;28;20237;-73
2022/09/11 08:39:48;;;;;;;15.40;10.32;;;21.70;99.90;;;;;;5045594;28;20215;-71
2022/09/11 08:42:15;;;;;;;14.82;10.18;;;21.40;99.90;;;;;;5044480;28;20204;-72
2022/09/11 08:44:51;;;;;;;13.40;10.50;;;21.10;99.90;;;;;;5047617;28;20208;-70
2022/09/11 08:47:24;;;;;;;15.45;10.70;;;20.80;99.90;;;;;;5049999;28;20211;-71
2022/09/11 08:50:08;;;;;;;14.27;11.25;;;20.40;99.90;;;;;;5035364;28;20542;-74
2022/09/11 08:52:36;;;;;;;15.77;10.25;;;20.20;99.90;;;;;;5048868;28;20202;-73
2022/09/11 08:55:01;;;;;;;14.95;11.02;;;20.00;99.90;;;;;;5047628;28;20204;-71
2022/09/11 08:57:34;;;;;;;14.43;11.57;;;19.90;99.90;;;;;;5050869;28;20208;-71
2022/09/11 09:00:06;;;;;;;15.45;10.75;;;19.80;99.90;;;;;;5044788;28;20576;-71
2022/09/11 09:02:56;;;;;;;14.82;10.07;;;19.80;99.90;;;;;;5046438;28;20176;-71
2022/09/11 09:05:44;;;;;;;16.55;11.13;;;19.70;99.90;;;;;;5048227;28;20669;-71
2022/09/11 09:08:27;;;;;;;16.10;11.25;;;19.60;99.90;;;;;;5025205;28;20217;-70
2022/09/11 09:11:18;;;;;;;17.88;10.85;;;19.50;99.90;;;;;;5046372;28;20212;-71
2022/09/11 09:14:12;;;;;;;13.85;9.75;;;19.40;99.90;;;;;;5043363;28;20286;-71
2022/09/11 09:16:47;;;;;;;14.65;10.68;;;19.50;99.90;;;;;;5045636;28;20223;-72
2022/09/11 09:19:28;;;;;;;15.55;10.80;;;19.60;99.90;;;;;;5032187;28;20207;-71
2022/09/11 09:22:11;;;;;;;13.48;10.88;;;19.80;99.90;;;;;;5045051;28;20741;-74
2022/09/11 09:24:59;;;;;;;13.95;10.32;;;20.00;99.90;;;;;;5043231;28;20204;-70
2022/09/11 09:27:32;;;;;;;13.93;10.55;;;19.90;99.90;;;;;;5046821;28;20202;-71
2022/09/11 09:30:01;;;;;;;13.63;10.80;;;20.00;99.90;;;;;;5045916;28;20755;-70
2022/09/11 09:32:40;;;;;;;15.05;10.05;;;20.20;99.90;;;;;;5031980;28;20186;-71
2022/09/11 09:35:15;;;;;;;14.52;10.38;;;20.50;99.90;;;;;;5041134;28;20290;-71
2022/09/11 09:37:41;;;;;;;13.95;10.18;;;20.60;99.90;;;;;;5032572;28;20210;-70
2022/09/11 09:40:09;;;;;;;11.73;9.93;;;20.70;99.90;;;;;;5045870;28;20204;-73
2022/09/11 09:43:01;;;;;;;14.90;9.57;;;21.00;99.90;;;;;;5028328;28;20383;-70
2022/09/11 09:45:47;;;;;;;14.10;9.65;;;21.20;99.90;;;;;;5023018;28;20332;-71
2022/09/11 09:48:12;;;;;;;13.15;9.55;;;21.10;99.90;;;;;;5045542;28;20211;-70
2022/09/11 09:50:42;;;;;;;13.30;10.60;;;21.30;99.90;;;;;;5030418;28;20178;-70
2022/09/11 09:53:22;;;;;;;13.68;9.85;;;21.20;99.90;;;;;;5044647;28;20176;-71
2022/09/11 09:55:50;;;;;;;11.77;9.13;;;21.20;99.90;;;;;;5044058;28;20728;-72
2022/09/11 09:58:16;;;;;;;13.30;9.77;;;20.90;99.90;;;;;;5047174;28;20203;-73
2022/09/11 10:00:42;;;;;;;12.65;9.80;;;20.70;99.90;;;;;;5039622;28;20214;-70
2022/09/11 10:03:18;;;;;;;13.68;9.35;;;20.40;99.90;;;;;;5047628;28;20219;-71
2022/09/11 10:05:44;;;;;;;13.18;9.88;;;20.20;99.90;;;;;;5044114;28;20638;-71
2022/09/11 10:08:25;;;;;;;11.57;8.55;;;20.00;99.90;;;;;;5031587;28;20268;-70
2022/09/11 10:11:05;;;;;;;11.75;8.90;;;20.10;99.90;;;;;;5028367;28;20310;-72
2022/09/11 10:13:33;;;;;;;12.45;9.23;;;20.30;99.90;;;;;;5041215;28;20641;-71
2022/09/11 10:16:04;;;;;;;11.68;9.75;;;20.70;99.90;;;;;;5040522;28;20212;-71
2022/09/11 10:18:29;;;;;;;14.63;11.50;;;21.00;99.90;;;;;;5042214;28;20226;-71
2022/09/11 10:21:10;;;;;;;11.63;8.95;;;21.10;99.90;;;;;;5045717;28;20231;-72
2022/09/11 10:23:45;;;;;;;11.73;9.27;;;21.10;99.90;;;;;;5043704;28;20569;-73
2022/09/11 10:26:19;;;;;;;13.73;9.40;;;21.20;99.90;;;;;;5024750;28;20286;-71
2022/09/11 10:28:46;;;;;;;13.23;9.10;;;21.40;99.90;;;;;;5043863;28;20717;-72
2022/09/11 10:31:16;;;;;;;10.07;7.45;;;21.80;99.90;;;;;;5043901;28;20230;-71
2022/09/11 10:33:51;;;;;;;14.68;8.75;;;22.00;99.90;;;;;;5041380;28;20287;-71
2022/09/11 10:36:30;;;;;;;11.05;8.40;;;21.90;99.90;;;;;;5044693;28;20226;-72
2022/09/11 10:38:58;;;;;;;13.70;9.90;;;21.60;99.90;;;;;;5049736;22;20231;-67
2022/09/11 10:41:26;;;;;;;12.90;8.98;;;21.60;99.90;;;;;;5048740;28;20203;-68
2022/09/11 10:43:54;;;;;;;8.38;7.25;;;21.80;99.90;;;;;;5037041;28;20234;-67
2022/09/11 10:46:27;;;;;;;9.55;7.43;;;21.90;99.90;;;;;;5050477;28;20212;-69
2022/09/11 10:48:57;;;;;;;9.98;7.65;;;22.40;99.90;;;;;;5064848;28;20260;-68
2022/09/11 10:51:28;;;;;;;11.45;8.35;;;22.60;99.90;;;;;;5073180;28;20685;-69
2022/09/11 10:54:38;;;;;;;8.90;7.35;;;22.60;99.90;;;;;;5069140;28;20218;-68
2022/09/11 10:57:42;;;;;;;10.40;7.47;;;22.50;99.90;;;;;;5070705;28;20214;-70
2022/09/11 11:00:20;;;;;;;12.43;10.30;;;22.10;99.90;;;;;;5070009;28;20287;-70
2022/09/11 11:02:51;;;;;;;11.70;8.93;;;21.70;99.90;;;;;;5044477;28;20181;-69
2022/09/11 11:05:42;;;;;;;11.82;8.10;;;21.50;99.90;;;;;;5073417;28;20163;-69
2022/09/11 11:08:23;;;;;;;10.57;8.02;;;21.00;99.90;;;;;;5072300;28;20322;-69
2022/09/11 11:10:55;;;;;;;11.63;8.38;;;20.60;99.90;;;;;;5069145;28;20627;-69
2022/09/11 11:13:52;;;;;;;10.35;8.15;;;20.50;99.90;;;;;;5054868;28;20264;-69
2022/09/11 11:16:19;;;;;;;11.57;9.65;;;20.20;99.90;;;;;;5054893;28;20211;-69
2022/09/11 11:19:05;;;;;;;14.23;10.05;;;20.20;99.90;;;;;;5072534;28;20207;-69
2022/09/11 11:21:49;;;;;;;13.20;9.18;;;20.10;99.90;;;;;;5070897;28;20203;-69
2022/09/11 11:24:17;;;;;;;15.10;10.05;;;20.40;99.90;;;;;;5072049;28;20200;-69
2022/09/11 11:27:03;;;;;;;11.43;8.43;;;20.70;99.90;;;;;;5072192;28;20190;-69
2022/09/11 11:29:38;;;;;;;11.82;9.85;;;20.80;99.90;;;;;;5070747;28;20880;-69
2022/09/11 11:32:23;;;;;;;11.13;8.52;;;20.80;99.90;;;;;;5072738;28;20596;-69
2022/09/11 11:35:11;;;;;;;10.38;7.75;;;20.70;99.90;;;;;;5072662;28;20211;-69
2022/09/11 11:37:41;;;;;;;9.63;8.15;;;20.50;99.90;;;;;;5071529;28;20202;-69
2022/09/11 11:40:26;;;;;;;11.25;7.53;;;20.50;99.90;;;;;;5070495;28;20592;-69
2022/09/11 11:42:58;;;;;;;10.48;7.88;;;20.70;99.90;;;;;;5052839;28;20199;-69
2022/09/11 11:45:33;;;;;;;9.88;7.32;;;20.90;99.90;;;;;;5069295;28;20313;-69
2022/09/11 11:48:04;;;;;;;8.23;6.80;;;21.50;99.90;;;;;;5073382;28;20818;-69
2022/09/11 11:50:40;;;;;;;9.82;6.20;;;21.60;99.90;;;;;;5068248;28;20167;-68
2022/09/11 11:53:27;;;;;;;11.75;7.20;;;21.40;99.90;;;;;;5072508;28;20173;-69
2022/09/11 11:56:06;;;;;;;6.80;6.10;;;21.30;99.90;;;;;;5068883;28;20219;-68
2022/09/11 11:58:55;;;;;;;7.43;6.47;;;21.00;99.90;;;;;;5067999;28;20592;-69
2022/09/11 12:02:02;;;;;;;7.22;6.40;;;21.10;99.90;;;;;;5067093;28;20271;-68
2022/09/11 12:04:30;;;;;;;7.40;6.50;;;21.30;99.90;;;;;;4993265;28;20277;-70
2022/09/11 12:06:55;;;;;;;9.32;6.85;;;21.50;99.90;;;;;;5057907;28;20261;-68
2022/09/11 12:09:21;;;;;;;7.78;5.90;;;21.40;99.90;;;;;;5053468;28;20203;-71
2022/09/11 12:11:51;;;;;;;7.82;5.75;;;21.40;99.90;;;;;;5071804;28;20191;-70
2022/09/11 12:14:27;;;;;;;7.05;5.22;;;21.30;99.90;;;;;;5072114;28;20240;-70
2022/09/11 12:16:55;;;;;;;6.25;5.15;;;21.30;99.90;;;;;;5071497;28;20219;-69
2022/09/11 12:19:24;;;;;;;7.97;6.32;;;21.10;99.90;;;;;;5067946;28;20218;-70
2022/09/11 12:21:52;;;;;;;7.18;5.65;;;20.90;99.90;;;;;;5071646;28;20309;-70
2022/09/11 12:24:43;;;;;;;6.85;5.78;;;21.00;99.90;;;;;;5065859;28;20195;-70
2022/09/11 12:27:33;;;;;;;8.43;5.75;;;21.00;99.90;;;;;;5057301;28;20222;-67
2022/09/11 12:30:15;;;;;;;7.53;5.70;;;21.00;99.90;;;;;;5069353;28;20219;-69
2022/09/11 12:32:48;;;;;;;7.85;5.53;;;21.10;99.90;;;;;;5068741;28;20167;-69
2022/09/11 12:35:41;;;;;;;7.47;5.60;;;21.10;99.90;;;;;;5068946;28;20170;-69
2022/09/11 12:38:13;;;;;;;5.78;4.45;;;21.10;99.90;;;;;;5070817;28;22367;-69
2022/09/11 12:40:51;;;;;;;5.28;4.18;;;21.20;99.90;;;;;;5070983;28;20688;-69
2022/09/11 12:43:35;;;;;;;5.28;4.03;;;21.30;99.90;;;;;;5070076;28;20246;-68
2022/09/11 12:46:07;;;;;;;5.07;4.18;;;21.40;99.90;;;;;;5067477;28;20210;-67
2022/09/11 12:48:43;;;;;;;5.80;3.60;;;21.40;99.90;;;;;;5070954;28;20207;-69
2022/09/11 12:51:36;;;;;;;5.60;4.03;;;21.40;99.90;;;;;;5070161;28;20532;-69
2022/09/11 12:54:13;;;;;;;4.70;4.18;;;21.30;99.90;;;;;;5068840;28;20203;-69
2022/09/11 12:56:46;;;;;;;6.07;5.13;;;21.00;99.90;;;;;;5067314;28;20198;-70
2022/09/11 12:59:25;;;;;;;7.65;5.85;;;20.80;99.90;;;;;;5071444;28;20289;-69